sensor_id;sensor_type;location;lat;lon;timestamp;P1;durP1;ratioP1;P2;durP2;ratioP2
50651;SDS011;66928;52.086;5.240;2023-05-23T05:40:32;11.7;;;6.0;;
50651;SDS011;66928;52.086;5.240;2023-05-23T05:42:09;13.3;;;5.7;;
50651;SDS011;66928;52.086;5.240;2023-05-23T05:45:22;13.5;;;6.4;;
50651;SDS011;66928;52.086;5.240;2023-05-23T05:46:58;13.8;;;6.2;;
50651;SDS011;66928;52.086;5.240;2023-05-23T05:48:34;12.4;;;5.8;;
50651;SDS011;66928;52.086;5.240;2023-05-23T05:50:10;14.0;;;5.9;;
50651;SDS011;66928;52.086;5.240;2023-05-23T05:53:22;13.3;;;5.6;;
50651;SDS011;66928;52.086;5.240;2023-05-23T05:54:59;11.6;;;6.0;;
50651;SDS011;66928;52.086;5.240;2023-05-23T05:56:35;13.4;;;6.3;;
50651;SDS011;66928;52.086;5.240;2023-05-23T05:59:47;11.3;;;5.4;;
50651;SDS011;66928;52.086;5.240;2023-05-23T06:01:23;10.1;;;5.8;;
50651;SDS011;66928;52.086;5.240;2023-05-23T06:03:00;10.1;;;5.8;;
50651;SDS011;66928;52.086;5.240;2023-05-23T06:06:12;11.5;;;6.0;;
50651;SDS011;66928;52.086;5.240;2023-05-23T06:07:48;12.8;;;5.9;;
50651;SDS011;66928;52.086;5.240;2023-05-23T06:09:24;11.4;;;5.8;;
50651;SDS011;66928;52.086;5.240;2023-05-23T06:12:37;12.6;;;5.8;;
50651;SDS011;66928;52.086;5.240;2023-05-23T06:14:13;10.8;;;6.1;;
50651;SDS011;66928;52.086;5.240;2023-05-23T06:15:49;13.0;;;5.9;;
50651;SDS011;66928;52.086;5.240;2023-05-23T06:17:26;11.8;;;5.9;;
50651;SDS011;66928;52.086;5.240;2023-05-23T06:20:39;13.9;;;6.0;;
50651;SDS011;66928;52.086;5.240;2023-05-23T06:22:15;14.6;;;6.1;;
50651;SDS011;66928;52.086;5.240;2023-05-23T06:23:51;9.71;;;5.8;;
50651;SDS011;66928;52.086;5.240;2023-05-23T06:27:03;12.6;;;6.2;;
50651;SDS011;66928;52.086;5.240;2023-05-23T06:28:39;11.6;;;5.8;;
50651;SDS011;66928;52.086;5.240;2023-05-23T06:30:16;11.7;;;6.1;;
50651;SDS011;66928;52.086;5.240;2023-05-23T06:33:29;19.8;;;6.2;;
50651;SDS011;66928;52.086;5.240;2023-05-23T06:35:05;14.5;;;6.1;;
50651;SDS011;66928;52.086;5.240;2023-05-23T06:36:42;10.4;;;5.9;;
50651;SDS011;66928;52.086;5.240;2023-05-23T06:38:19;12.5;;;6.3;;
50651;SDS011;66928;52.086;5.240;2023-05-23T06:41:31;12.5;;;6.2;;
50651;SDS011;66928;52.086;5.240;2023-05-23T06:43:07;11.8;;;6.6;;
50651;SDS011;66928;52.086;5.240;2023-05-23T06:44:43;13.0;;;6.5;;
50651;SDS011;66928;52.086;5.240;2023-05-23T06:47:56;12.7;;;6.1;;
50651;SDS011;66928;52.086;5.240;2023-05-23T06:49:32;14.4;;;6.3;;
50651;SDS011;66928;52.086;5.240;2023-05-23T06:51:08;11.9;;;6.0;;
50651;SDS011;66928;52.086;5.240;2023-05-23T06:54:21;13.4;;;6.4;;
50651;SDS011;66928;52.086;5.240;2023-05-23T06:55:57;10.7;;;5.9;;
50651;SDS011;66928;52.086;5.240;2023-05-23T06:57:33;12.2;;;5.7;;
50651;SDS011;66928;52.086;5.240;2023-05-23T07:00:45;11.2;;;5.6;;
50651;SDS011;66928;52.086;5.240;2023-05-23T07:02:22;10.6;;;5.9;;
50651;SDS011;66928;52.086;5.240;2023-05-23T07:03:58;9.81;;;5.3;;
50651;SDS011;66928;52.086;5.240;2023-05-23T07:05:33;15.1;;;5.2;;
50651;SDS011;66928;52.086;5.240;2023-05-23T07:08:45;14.3;;;5.6;;
50651;SDS011;66928;52.086;5.240;2023-05-23T07:10:22;8.6;;;4.91;;
50651;SDS011;66928;52.086;5.240;2023-05-23T07:11:58;10.0;;;5.11;;
50651;SDS011;66928;52.086;5.240;2023-05-23T07:15:10;11.1;;;5.0;;
50651;SDS011;66928;52.086;5.240;2023-05-23T07:16:46;12.3;;;4.91;;
50651;SDS011;66928;52.086;5.240;2023-05-23T07:18:23;13.0;;;4.7;;
50651;SDS011;66928;52.086;5.240;2023-05-23T07:21:36;11.6;;;4.5;;
50651;SDS011;66928;52.086;5.240;2023-05-23T07:23:12;11.1;;;4.41;;
50651;SDS011;66928;52.086;5.240;2023-05-23T07:24:48;9.71;;;3.6;;
50651;SDS011;66928;52.086;5.240;2023-05-23T07:26:25;9.1;;;3.8;;
50651;SDS011;66928;52.086;5.240;2023-05-23T07:29:37;9.4;;;3.6;;
50651;SDS011;66928;52.086;5.240;2023-05-23T07:31:13;8.2;;;3.4;;
50651;SDS011;66928;52.086;5.240;2023-05-23T07:32:49;11.1;;;3.8;;
50651;SDS011;66928;52.086;5.240;2023-05-23T07:36:02;9.6;;;3.7;;
50651;SDS011;66928;52.086;5.240;2023-05-23T07:37:38;10.0;;;3.5;;
50651;SDS011;66928;52.086;5.240;2023-05-23T07:39:14;9.5;;;3.5;;
50651;SDS011;66928;52.086;5.240;2023-05-23T07:42:26;13.1;;;3.9;;
50651;SDS011;66928;52.086;5.240;2023-05-23T07:44:03;10.3;;;3.5;;
50651;SDS011;66928;52.086;5.240;2023-05-23T07:45:39;12.4;;;3.9;;
50651;SDS011;66928;52.086;5.240;2023-05-23T07:48:51;10.5;;;4.0;;
50651;SDS011;66928;52.086;5.240;2023-05-23T07:50:27;14.0;;;3.8;;
50651;SDS011;66928;52.086;5.240;2023-05-23T07:52:03;9.4;;;3.4;;
50651;SDS011;66928;52.086;5.240;2023-05-23T07:53:40;13.2;;;3.8;;
50651;SDS011;66928;52.086;5.240;2023-05-23T07:56:52;12.3;;;4.1;;
50651;SDS011;66928;52.086;5.240;2023-05-23T07:58:28;15.2;;;4.0;;
50651;SDS011;66928;52.086;5.240;2023-05-23T08:00:05;11.5;;;3.8;;
50651;SDS011;66928;52.086;5.240;2023-05-23T08:03:18;10.6;;;3.9;;
50651;SDS011;66928;52.086;5.240;2023-05-23T08:04:54;11.8;;;3.9;;
50651;SDS011;66928;52.086;5.240;2023-05-23T08:06:30;10.0;;;3.5;;
50651;SDS011;66928;52.086;5.240;2023-05-23T08:09:43;14.2;;;3.7;;
50651;SDS011;66928;52.086;5.240;2023-05-23T08:11:19;9.6;;;3.4;;
50651;SDS011;66928;52.086;5.240;2023-05-23T08:12:55;14.3;;;4.0;;
50651;SDS011;66928;52.086;5.240;2023-05-23T08:14:31;11.8;;;3.4;;
50651;SDS011;66928;52.086;5.240;2023-05-23T08:17:44;12.2;;;3.9;;
50651;SDS011;66928;52.086;5.240;2023-05-23T08:19:20;12.4;;;3.9;;
50651;SDS011;66928;52.086;5.240;2023-05-23T08:20:56;14.8;;;3.7;;
50651;SDS011;66928;52.086;5.240;2023-05-23T08:24:08;11.1;;;3.5;;
50651;SDS011;66928;52.086;5.240;2023-05-23T08:25:44;9.81;;;3.5;;
50651;SDS011;66928;52.086;5.240;2023-05-23T08:27:21;12.7;;;3.5;;
50651;SDS011;66928;52.086;5.240;2023-05-23T08:30:33;10.1;;;3.3;;
50651;SDS011;66928;52.086;5.240;2023-05-23T08:32:09;7.9;;;3.2;;
50651;SDS011;66928;52.086;5.240;2023-05-23T08:33:45;13.4;;;4.1;;
50651;SDS011;66928;52.086;5.240;2023-05-23T08:36:58;11.2;;;3.6;;
50651;SDS011;66928;52.086;5.240;2023-05-23T08:38:34;12.0;;;3.6;;
50651;SDS011;66928;52.086;5.240;2023-05-23T08:40:11;11.5;;;3.9;;
50651;SDS011;66928;52.086;5.240;2023-05-23T08:41:52;12.7;;;3.8;;
50651;SDS011;66928;52.086;5.240;2023-05-23T08:45:05;11.2;;;3.3;;
50651;SDS011;66928;52.086;5.240;2023-05-23T08:46:43;13.4;;;3.9;;
50651;SDS011;66928;52.086;5.240;2023-05-23T08:48:21;12.8;;;3.8;;
50651;SDS011;66928;52.086;5.240;2023-05-23T08:51:36;11.5;;;3.9;;
50651;SDS011;66928;52.086;5.240;2023-05-23T08:53:16;10.9;;;3.5;;
50651;SDS011;66928;52.086;5.240;2023-05-23T08:54:58;14.5;;;3.9;;
50651;SDS011;66928;52.086;5.240;2023-05-23T08:56:36;10.5;;;4.1;;
50651;SDS011;66928;52.086;5.240;2023-05-23T08:59:49;10.9;;;3.7;;
50651;SDS011;66928;52.086;5.240;2023-05-23T09:01:26;12.4;;;3.6;;
50651;SDS011;66928;52.086;5.240;2023-05-23T09:03:05;10.3;;;3.6;;
50651;SDS011;66928;52.086;5.240;2023-05-23T09:06:18;12.7;;;3.8;;
50651;SDS011;66928;52.086;5.240;2023-05-23T09:07:55;13.8;;;3.7;;
50651;SDS011;66928;52.086;5.240;2023-05-23T09:09:31;8.31;;;3.3;;
50651;SDS011;66928;52.086;5.240;2023-05-23T09:11:08;13.0;;;3.8;;
50651;SDS011;66928;52.086;5.240;2023-05-23T09:14:20;12.9;;;3.9;;
50651;SDS011;66928;52.086;5.240;2023-05-23T09:15:59;10.0;;;3.6;;
50651;SDS011;66928;52.086;5.240;2023-05-23T09:17:37;12.0;;;3.7;;
50651;SDS011;66928;52.086;5.240;2023-05-23T09:20:50;12.2;;;3.5;;
50651;SDS011;66928;52.086;5.240;2023-05-23T09:22:26;9.9;;;3.4;;
50651;SDS011;66928;52.086;5.240;2023-05-23T09:24:04;11.2;;;3.6;;
50651;SDS011;66928;52.086;5.240;2023-05-23T09:25:44;12.0;;;3.8;;
50651;SDS011;66928;52.086;5.240;2023-05-23T09:28:58;10.21;;;3.7;;
50651;SDS011;66928;52.086;5.240;2023-05-23T09:30:35;10.8;;;4.2;;
50651;SDS011;66928;52.086;5.240;2023-05-23T09:32:16;11.3;;;3.7;;
50651;SDS011;66928;52.086;5.240;2023-05-23T09:35:28;12.2;;;3.5;;
50651;SDS011;66928;52.086;5.240;2023-05-23T09:37:04;12.9;;;4.3;;
50651;SDS011;66928;52.086;5.240;2023-05-23T09:38:41;13.3;;;3.8;;
50651;SDS011;66928;52.086;5.240;2023-05-23T09:40:20;12.7;;;3.9;;
50651;SDS011;66928;52.086;5.240;2023-05-23T09:43:33;10.5;;;3.9;;
50651;SDS011;66928;52.086;5.240;2023-05-23T09:45:10;11.3;;;3.9;;
50651;SDS011;66928;52.086;5.240;2023-05-23T09:46:47;13.4;;;3.6;;
50651;SDS011;66928;52.086;5.240;2023-05-23T09:50:04;11.9;;;4.2;;
50651;SDS011;66928;52.086;5.240;2023-05-23T09:51:41;11.4;;;3.8;;
50651;SDS011;66928;52.086;5.240;2023-05-23T09:53:17;12.2;;;3.8;;
50651;SDS011;66928;52.086;5.240;2023-05-23T09:56:30;12.5;;;3.9;;
50651;SDS011;66928;52.086;5.240;2023-05-23T09:58:07;9.9;;;4.1;;
50651;SDS011;66928;52.086;5.240;2023-05-23T09:59:44;10.5;;;3.8;;
50651;SDS011;66928;52.086;5.240;2023-05-23T10:01:28;12.3;;;3.6;;
50651;SDS011;66928;52.086;5.240;2023-05-23T10:04:46;11.0;;;3.7;;
50651;SDS011;66928;52.086;5.240;2023-05-23T10:06:24;9.81;;;3.3;;
50651;SDS011;66928;52.086;5.240;2023-05-23T10:08:06;10.8;;;3.8;;
50651;SDS011;66928;52.086;5.240;2023-05-23T10:09:46;10.8;;;3.7;;
50651;SDS011;66928;52.086;5.240;2023-05-23T10:15:06;14.8;;;3.7;;
50651;SDS011;66928;52.086;5.240;2023-05-23T10:16:51;10.5;;;3.5;;
50651;SDS011;66928;52.086;5.240;2023-05-23T10:18:37;8.31;;;3.4;;
50651;SDS011;66928;52.086;5.240;2023-05-23T10:20:19;10.8;;;3.2;;
50651;SDS011;66928;52.086;5.240;2023-05-23T10:23:41;12.7;;;3.7;;
50651;SDS011;66928;52.086;5.240;2023-05-23T10:25:18;9.71;;;3.5;;
50651;SDS011;66928;52.086;5.240;2023-05-23T10:26:54;9.21;;;3.2;;
50651;SDS011;66928;52.086;5.240;2023-05-23T10:28:30;10.1;;;3.4;;
50651;SDS011;66928;52.086;5.240;2023-05-23T10:31:44;9.31;;;3.4;;
50651;SDS011;66928;52.086;5.240;2023-05-23T10:33:22;8.2;;;3.1;;
50651;SDS011;66928;52.086;5.240;2023-05-23T10:35:00;9.71;;;3.2;;
50651;SDS011;66928;52.086;5.240;2023-05-23T10:36:47;12.7;;;3.7;;
50651;SDS011;66928;52.086;5.240;2023-05-23T10:40:16;14.3;;;3.6;;
50651;SDS011;66928;52.086;5.240;2023-05-23T10:42:05;16.0;;;3.4;;
50651;SDS011;66928;52.086;5.240;2023-05-23T10:43:47;11.4;;;3.2;;
50651;SDS011;66928;52.086;5.240;2023-05-23T10:45:30;11.1;;;3.2;;
50651;SDS011;66928;52.086;5.240;2023-05-23T10:47:24;8.5;;;2.9;;
50651;SDS011;66928;52.086;5.240;2023-05-23T10:50:37;8.5;;;3.0;;
50651;SDS011;66928;52.086;5.240;2023-05-23T10:52:15;7.4;;;2.8;;
50651;SDS011;66928;52.086;5.240;2023-05-23T10:53:52;7.7;;;3.0;;
50651;SDS011;66928;52.086;5.240;2023-05-23T10:57:08;7.7;;;3.0;;
50651;SDS011;66928;52.086;5.240;2023-05-23T10:58:45;7.3;;;3.1;;
50651;SDS011;66928;52.086;5.240;2023-05-23T11:00:21;9.5;;;3.2;;
50651;SDS011;66928;52.086;5.240;2023-05-23T11:01:59;11.6;;;3.1;;
50651;SDS011;66928;52.086;5.240;2023-05-23T11:05:26;8.81;;;3.3;;
50651;SDS011;66928;52.086;5.240;2023-05-23T11:07:04;9.6;;;3.3;;
50651;SDS011;66928;52.086;5.240;2023-05-23T11:10:17;11.0;;;3.3;;
50651;SDS011;66928;52.086;5.240;2023-05-23T11:14:03;9.5;;;3.1;;
50651;SDS011;66928;52.086;5.240;2023-05-23T11:15:40;9.81;;;3.2;;
50651;SDS011;66928;52.086;5.240;2023-05-23T11:17:18;12.2;;;3.2;;
50651;SDS011;66928;52.086;5.240;2023-05-23T11:19:22;10.0;;;3.4;;
50651;SDS011;66928;52.086;5.240;2023-05-23T11:20:59;10.4;;;3.7;;
50651;SDS011;66928;52.086;5.240;2023-05-23T11:24:12;10.9;;;3.3;;
50651;SDS011;66928;52.086;5.240;2023-05-23T11:25:49;9.81;;;3.1;;
50651;SDS011;66928;52.086;5.240;2023-05-23T11:27:27;8.81;;;2.9;;
50651;SDS011;66928;52.086;5.240;2023-05-23T11:29:07;8.0;;;3.0;;
50651;SDS011;66928;52.086;5.240;2023-05-23T11:32:23;9.0;;;3.0;;
50651;SDS011;66928;52.086;5.240;2023-05-23T11:34:04;5.3;;;2.5;;
50651;SDS011;66928;52.086;5.240;2023-05-23T11:35:40;7.9;;;3.1;;
50651;SDS011;66928;52.086;5.240;2023-05-23T11:38:53;9.5;;;3.3;;
50651;SDS011;66928;52.086;5.240;2023-05-23T11:40:31;10.4;;;3.5;;
50651;SDS011;66928;52.086;5.240;2023-05-23T11:42:08;12.5;;;3.6;;
50651;SDS011;66928;52.086;5.240;2023-05-23T11:43:48;9.31;;;3.3;;
50651;SDS011;66928;52.086;5.240;2023-05-23T11:47:05;11.8;;;3.5;;
50651;SDS011;66928;52.086;5.240;2023-05-23T11:48:43;9.1;;;3.4;;
50651;SDS011;66928;52.086;5.240;2023-05-23T11:50:20;13.4;;;3.5;;
50651;SDS011;66928;52.086;5.240;2023-05-23T11:53:33;11.4;;;3.7;;
50651;SDS011;66928;52.086;5.240;2023-05-23T11:55:10;10.8;;;3.4;;
50651;SDS011;66928;52.086;5.240;2023-05-23T11:56:46;10.0;;;3.4;;
50651;SDS011;66928;52.086;5.240;2023-05-23T11:58:25;9.5;;;3.0;;
50651;SDS011;66928;52.086;5.240;2023-05-23T12:01:40;8.1;;;3.3;;
50651;SDS011;66928;52.086;5.240;2023-05-23T12:03:18;11.7;;;3.2;;
50651;SDS011;66928;52.086;5.240;2023-05-23T12:08:07;8.4;;;2.8;;
50651;SDS011;66928;52.086;5.240;2023-05-23T12:09:47;7.8;;;2.8;;
50651;SDS011;66928;52.086;5.240;2023-05-23T12:11:23;7.8;;;2.7;;
50651;SDS011;66928;52.086;5.240;2023-05-23T12:13:00;7.9;;;2.7;;
50651;SDS011;66928;52.086;5.240;2023-05-23T12:16:12;10.21;;;3.1;;
50651;SDS011;66928;52.086;5.240;2023-05-23T12:17:49;9.71;;;3.2;;
50651;SDS011;66928;52.086;5.240;2023-05-23T12:19:28;6.8;;;2.7;;
50651;SDS011;66928;52.086;5.240;2023-05-23T12:22:42;8.81;;;3.1;;
50651;SDS011;66928;52.086;5.240;2023-05-23T12:24:19;8.5;;;3.1;;
50651;SDS011;66928;52.086;5.240;2023-05-23T12:25:56;7.8;;;3.1;;
50651;SDS011;66928;52.086;5.240;2023-05-23T12:29:10;8.2;;;2.9;;
50651;SDS011;66928;52.086;5.240;2023-05-23T12:30:46;8.9;;;3.1;;
50651;SDS011;66928;52.086;5.240;2023-05-23T12:32:23;7.8;;;3.1;;
50651;SDS011;66928;52.086;5.240;2023-05-23T12:34:00;10.3;;;3.1;;
50651;SDS011;66928;52.086;5.240;2023-05-23T12:37:13;9.4;;;3.1;;
50651;SDS011;66928;52.086;5.240;2023-05-23T12:38:49;8.81;;;3.1;;
50651;SDS011;66928;52.086;5.240;2023-05-23T12:40:26;9.81;;;3.6;;
50651;SDS011;66928;52.086;5.240;2023-05-23T12:43:48;10.5;;;3.7;;
50651;SDS011;66928;52.086;5.240;2023-05-23T12:45:29;11.1;;;3.5;;
50651;SDS011;66928;52.086;5.240;2023-05-23T12:47:07;12.3;;;3.3;;
50651;SDS011;66928;52.086;5.240;2023-05-23T12:48:44;12.1;;;3.4;;
50651;SDS011;66928;52.086;5.240;2023-05-23T12:51:56;10.5;;;3.5;;
50651;SDS011;66928;52.086;5.240;2023-05-23T12:53:32;11.5;;;3.3;;
50651;SDS011;66928;52.086;5.240;2023-05-23T12:55:09;9.71;;;3.0;;
50651;SDS011;66928;52.086;5.240;2023-05-23T12:58:22;8.31;;;3.3;;
50651;SDS011;66928;52.086;5.240;2023-05-23T12:59:58;8.1;;;3.2;;
50651;SDS011;66928;52.086;5.240;2023-05-23T13:01:34;10.6;;;3.3;;
50651;SDS011;66928;52.086;5.240;2023-05-23T13:03:10;11.4;;;3.3;;
50651;SDS011;66928;52.086;5.240;2023-05-23T13:06:22;8.81;;;2.6;;
50651;SDS011;66928;52.086;5.240;2023-05-23T13:07:58;6.3;;;2.8;;
50651;SDS011;66928;52.086;5.240;2023-05-23T13:09:35;8.6;;;2.6;;
50651;SDS011;66928;52.086;5.240;2023-05-23T13:12:47;9.5;;;2.8;;
50651;SDS011;66928;52.086;5.240;2023-05-23T13:15:59;8.1;;;2.8;;
50651;SDS011;66928;52.086;5.240;2023-05-23T13:19:12;7.1;;;2.8;;
50651;SDS011;66928;52.086;5.240;2023-05-23T13:20:48;7.1;;;2.8;;
50651;SDS011;66928;52.086;5.240;2023-05-23T13:22:24;10.0;;;3.2;;
50651;SDS011;66928;52.086;5.240;2023-05-23T13:25:36;7.4;;;2.8;;
50651;SDS011;66928;52.086;5.240;2023-05-23T13:27:13;8.0;;;2.7;;
50651;SDS011;66928;52.086;5.240;2023-05-23T13:28:49;12.0;;;3.2;;
50651;SDS011;66928;52.086;5.240;2023-05-23T13:30:25;9.81;;;3.2;;
50651;SDS011;66928;52.086;5.240;2023-05-23T13:33:39;10.21;;;3.1;;
50651;SDS011;66928;52.086;5.240;2023-05-23T13:35:15;8.0;;;3.1;;
50651;SDS011;66928;52.086;5.240;2023-05-23T13:36:51;8.9;;;3.1;;
50651;SDS011;66928;52.086;5.240;2023-05-23T13:40:04;10.9;;;3.5;;
50651;SDS011;66928;52.086;5.240;2023-05-23T13:41:41;10.4;;;3.4;;
50651;SDS011;66928;52.086;5.240;2023-05-23T13:43:18;9.9;;;2.9;;
50651;SDS011;66928;52.086;5.240;2023-05-23T13:46:30;8.71;;;3.0;;
50651;SDS011;66928;52.086;5.240;2023-05-23T13:48:06;9.4;;;3.4;;
50651;SDS011;66928;52.086;5.240;2023-05-23T13:49:43;8.71;;;3.1;;
50651;SDS011;66928;52.086;5.240;2023-05-23T13:51:19;9.21;;;2.9;;
50651;SDS011;66928;52.086;5.240;2023-05-23T13:54:31;9.0;;;2.8;;
50651;SDS011;66928;52.086;5.240;2023-05-23T13:56:07;8.31;;;3.0;;
50651;SDS011;66928;52.086;5.240;2023-05-23T13:57:44;11.9;;;3.2;;
50651;SDS011;66928;52.086;5.240;2023-05-23T14:00:56;9.5;;;3.4;;
50651;SDS011;66928;52.086;5.240;2023-05-23T14:02:32;8.81;;;2.7;;
50651;SDS011;66928;52.086;5.240;2023-05-23T14:04:08;8.2;;;2.8;;
50651;SDS011;66928;52.086;5.240;2023-05-23T14:07:20;10.21;;;2.9;;
50651;SDS011;66928;52.086;5.240;2023-05-23T14:08:56;9.0;;;2.8;;
50651;SDS011;66928;52.086;5.240;2023-05-23T14:10:33;6.9;;;2.5;;
50651;SDS011;66928;52.086;5.240;2023-05-23T14:13:45;8.9;;;2.6;;
50651;SDS011;66928;52.086;5.240;2023-05-23T14:15:21;8.9;;;2.8;;
50651;SDS011;66928;52.086;5.240;2023-05-23T14:16:57;6.1;;;2.7;;
50651;SDS011;66928;52.086;5.240;2023-05-23T14:18:34;9.71;;;2.7;;
50651;SDS011;66928;52.086;5.240;2023-05-23T14:21:47;7.9;;;2.9;;
50651;SDS011;66928;52.086;5.240;2023-05-23T14:23:23;6.4;;;3.0;;
50651;SDS011;66928;52.086;5.240;2023-05-23T14:24:59;6.9;;;2.7;;
50651;SDS011;66928;52.086;5.240;2023-05-23T14:28:12;10.6;;;3.4;;
50651;SDS011;66928;52.086;5.240;2023-05-23T14:29:48;9.4;;;3.0;;
50651;SDS011;66928;52.086;5.240;2023-05-23T14:31:24;9.4;;;3.0;;
50651;SDS011;66928;52.086;5.240;2023-05-23T14:34:37;8.71;;;2.9;;
50651;SDS011;66928;52.086;5.240;2023-05-23T14:36:13;8.81;;;3.0;;
50651;SDS011;66928;52.086;5.240;2023-05-23T14:37:49;10.21;;;3.1;;
50651;SDS011;66928;52.086;5.240;2023-05-23T14:39:25;8.4;;;3.5;;
50651;SDS011;66928;52.086;5.240;2023-05-23T14:42:37;5.8;;;2.5;;
50651;SDS011;66928;52.086;5.240;2023-05-23T14:44:14;8.0;;;3.0;;
50651;SDS011;66928;52.086;5.240;2023-05-23T14:45:50;7.5;;;2.9;;
50651;SDS011;66928;52.086;5.240;2023-05-23T14:49:02;8.31;;;3.0;;
50651;SDS011;66928;52.086;5.240;2023-05-23T14:50:38;6.8;;;2.4;;
50651;SDS011;66928;52.086;5.240;2023-05-23T14:52:15;9.0;;;2.6;;
50651;SDS011;66928;52.086;5.240;2023-05-23T14:55:27;7.8;;;2.9;;
50651;SDS011;66928;52.086;5.240;2023-05-23T14:57:03;8.1;;;2.8;;
50651;SDS011;66928;52.086;5.240;2023-05-23T14:58:39;9.21;;;3.1;;
50651;SDS011;66928;52.086;5.240;2023-05-23T15:01:53;10.0;;;3.0;;
50651;SDS011;66928;52.086;5.240;2023-05-23T15:03:29;11.1;;;3.0;;
50651;SDS011;66928;52.086;5.240;2023-05-23T15:05:05;6.7;;;2.6;;
50651;SDS011;66928;52.086;5.240;2023-05-23T15:06:42;9.4;;;2.8;;
50651;SDS011;66928;52.086;5.240;2023-05-23T15:09:55;7.4;;;2.8;;
50651;SDS011;66928;52.086;5.240;2023-05-23T15:11:31;9.0;;;3.0;;
50651;SDS011;66928;52.086;5.240;2023-05-23T15:13:07;6.6;;;2.9;;
50651;SDS011;66928;52.086;5.240;2023-05-23T15:16:19;9.71;;;2.6;;
50651;SDS011;66928;52.086;5.240;2023-05-23T15:17:56;8.4;;;2.8;;
50651;SDS011;66928;52.086;5.240;2023-05-23T15:19:32;6.8;;;2.5;;
50651;SDS011;66928;52.086;5.240;2023-05-23T15:22:45;10.5;;;2.8;;
50651;SDS011;66928;52.086;5.240;2023-05-23T15:24:21;7.3;;;2.6;;
50651;SDS011;66928;52.086;5.240;2023-05-23T15:25:57;6.1;;;2.21;;
50651;SDS011;66928;52.086;5.240;2023-05-23T15:27:33;7.0;;;2.5;;
50651;SDS011;66928;52.086;5.240;2023-05-23T15:30:46;6.9;;;2.5;;
50651;SDS011;66928;52.086;5.240;2023-05-23T15:32:22;5.9;;;2.4;;
50651;SDS011;66928;52.086;5.240;2023-05-23T15:33:58;8.1;;;2.4;;
50651;SDS011;66928;52.086;5.240;2023-05-23T15:37:11;7.2;;;2.5;;
50651;SDS011;66928;52.086;5.240;2023-05-23T15:38:47;8.71;;;2.5;;
50651;SDS011;66928;52.086;5.240;2023-05-23T15:40:23;6.2;;;2.5;;
50651;SDS011;66928;52.086;5.240;2023-05-23T15:43:35;8.6;;;2.8;;
50651;SDS011;66928;52.086;5.240;2023-05-23T15:45:13;8.5;;;2.31;;
50651;SDS011;66928;52.086;5.240;2023-05-23T15:46:50;11.5;;;3.0;;
50651;SDS011;66928;52.086;5.240;2023-05-23T15:48:27;7.1;;;2.7;;
50651;SDS011;66928;52.086;5.240;2023-05-23T15:51:40;10.0;;;3.0;;
50651;SDS011;66928;52.086;5.240;2023-05-23T15:53:16;7.6;;;2.8;;
50651;SDS011;66928;52.086;5.240;2023-05-23T15:54:52;8.9;;;3.3;;
50651;SDS011;66928;52.086;5.240;2023-05-23T15:58:05;7.9;;;2.9;;
50651;SDS011;66928;52.086;5.240;2023-05-23T15:59:41;8.31;;;3.3;;
50651;SDS011;66928;52.086;5.240;2023-05-23T16:01:17;8.31;;;3.3;;
50651;SDS011;66928;52.086;5.240;2023-05-23T16:04:30;10.0;;;3.0;;
50651;SDS011;66928;52.086;5.240;2023-05-23T16:06:06;4.5;;;2.31;;
50651;SDS011;66928;52.086;5.240;2023-05-23T16:07:42;5.6;;;2.31;;
50651;SDS011;66928;52.086;5.240;2023-05-23T16:10:54;6.1;;;2.7;;
50651;SDS011;66928;52.086;5.240;2023-05-23T16:12:30;9.1;;;2.5;;
50651;SDS011;66928;52.086;5.240;2023-05-23T16:14:06;9.21;;;2.4;;
50651;SDS011;66928;52.086;5.240;2023-05-23T16:15:43;6.4;;;2.4;;
50651;SDS011;66928;52.086;5.240;2023-05-23T16:18:55;5.9;;;2.6;;
50651;SDS011;66928;52.086;5.240;2023-05-23T16:20:31;6.9;;;2.6;;
50651;SDS011;66928;52.086;5.240;2023-05-23T16:22:07;10.4;;;3.0;;
50651;SDS011;66928;52.086;5.240;2023-05-23T16:25:20;8.71;;;2.4;;
50651;SDS011;66928;52.086;5.240;2023-05-23T16:26:56;5.9;;;2.21;;
50651;SDS011;66928;52.086;5.240;2023-05-23T16:28:34;6.2;;;2.31;;
50651;SDS011;66928;52.086;5.240;2023-05-23T16:31:46;6.8;;;2.4;;
50651;SDS011;66928;52.086;5.240;2023-05-23T16:33:23;5.8;;;2.6;;
50651;SDS011;66928;52.086;5.240;2023-05-23T16:34:59;7.0;;;2.6;;
50651;SDS011;66928;52.086;5.240;2023-05-23T16:36:36;6.9;;;2.6;;
50651;SDS011;66928;52.086;5.240;2023-05-23T16:39:48;5.7;;;2.5;;
50651;SDS011;66928;52.086;5.240;2023-05-23T16:41:24;8.81;;;2.9;;
50651;SDS011;66928;52.086;5.240;2023-05-23T16:43:01;6.7;;;2.5;;
50651;SDS011;66928;52.086;5.240;2023-05-23T16:46:13;5.7;;;2.6;;
50651;SDS011;66928;52.086;5.240;2023-05-23T16:47:49;9.21;;;3.0;;
50651;SDS011;66928;52.086;5.240;2023-05-23T16:49:25;9.21;;;3.0;;
50651;SDS011;66928;52.086;5.240;2023-05-23T16:52:38;11.3;;;3.0;;
50651;SDS011;66928;52.086;5.240;2023-05-23T16:54:14;9.4;;;2.8;;
50651;SDS011;66928;52.086;5.240;2023-05-23T16:55:50;7.3;;;2.5;;
50651;SDS011;66928;52.086;5.240;2023-05-23T16:59:02;7.7;;;2.8;;
50651;SDS011;66928;52.086;5.240;2023-05-23T17:00:38;7.8;;;2.9;;
50651;SDS011;66928;52.086;5.240;2023-05-23T17:03:51;6.7;;;2.4;;
50651;SDS011;66928;52.086;5.240;2023-05-23T17:07:03;8.4;;;2.31;;
50651;SDS011;66928;52.086;5.240;2023-05-23T17:08:39;7.6;;;2.4;;
50651;SDS011;66928;52.086;5.240;2023-05-23T17:10:16;7.4;;;2.6;;
50651;SDS011;66928;52.086;5.240;2023-05-23T17:13:28;4.91;;;2.31;;
50651;SDS011;66928;52.086;5.240;2023-05-23T17:15:07;5.6;;;2.4;;
50651;SDS011;66928;52.086;5.240;2023-05-23T17:16:43;8.31;;;2.7;;
50651;SDS011;66928;52.086;5.240;2023-05-23T17:19:56;7.7;;;2.5;;
50651;SDS011;66928;52.086;5.240;2023-05-23T17:21:32;7.7;;;2.5;;
50651;SDS011;66928;52.086;5.240;2023-05-23T17:23:08;8.71;;;2.7;;
50651;SDS011;66928;52.086;5.240;2023-05-23T17:24:44;9.9;;;2.7;;
50651;SDS011;66928;52.086;5.240;2023-05-23T17:27:57;10.9;;;2.8;;
50651;SDS011;66928;52.086;5.240;2023-05-23T17:29:33;8.0;;;2.6;;
50651;SDS011;66928;52.086;5.240;2023-05-23T17:31:09;6.6;;;2.5;;
50651;SDS011;66928;52.086;5.240;2023-05-23T17:34:21;8.6;;;3.2;;
50651;SDS011;66928;52.086;5.240;2023-05-23T17:35:58;8.0;;;2.9;;
50651;SDS011;66928;52.086;5.240;2023-05-23T17:37:34;8.9;;;2.31;;
50651;SDS011;66928;52.086;5.240;2023-05-23T17:40:46;9.0;;;2.8;;
50651;SDS011;66928;52.086;5.240;2023-05-23T17:42:22;7.2;;;2.5;;
50651;SDS011;66928;52.086;5.240;2023-05-23T17:44:00;7.4;;;2.8;;
50651;SDS011;66928;52.086;5.240;2023-05-23T17:45:37;6.0;;;2.6;;
50651;SDS011;66928;52.086;5.240;2023-05-23T17:48:49;7.4;;;2.6;;
50651;SDS011;66928;52.086;5.240;2023-05-23T17:50:26;7.3;;;2.6;;
50651;SDS011;66928;52.086;5.240;2023-05-23T17:52:03;10.7;;;2.7;;
50651;SDS011;66928;52.086;5.240;2023-05-23T17:55:15;8.0;;;2.8;;
50651;SDS011;66928;52.086;5.240;2023-05-23T17:56:51;6.3;;;2.31;;
50651;SDS011;66928;52.086;5.240;2023-05-23T17:58:27;9.4;;;2.7;;
50651;SDS011;66928;52.086;5.240;2023-05-23T18:01:41;8.2;;;2.6;;
50651;SDS011;66928;52.086;5.240;2023-05-23T18:03:18;8.9;;;2.8;;
50651;SDS011;66928;52.086;5.240;2023-05-23T18:04:54;6.8;;;2.4;;
50651;SDS011;66928;52.086;5.240;2023-05-23T18:06:30;9.71;;;3.0;;
50651;SDS011;66928;52.086;5.240;2023-05-23T18:09:42;9.31;;;2.9;;
50651;SDS011;66928;52.086;5.240;2023-05-23T18:11:18;11.2;;;2.5;;
50651;SDS011;66928;52.086;5.240;2023-05-23T18:12:54;7.4;;;2.8;;
50651;SDS011;66928;52.086;5.240;2023-05-23T18:16:07;11.3;;;2.8;;
50651;SDS011;66928;52.086;5.240;2023-05-23T18:17:43;5.9;;;2.5;;
50651;SDS011;66928;52.086;5.240;2023-05-23T18:19:19;11.8;;;2.6;;
50651;SDS011;66928;52.086;5.240;2023-05-23T18:22:31;7.6;;;2.5;;
50651;SDS011;66928;52.086;5.240;2023-05-23T18:24:08;7.7;;;2.21;;
50651;SDS011;66928;52.086;5.240;2023-05-23T18:25:44;7.3;;;2.31;;
50651;SDS011;66928;52.086;5.240;2023-05-23T18:28:56;7.4;;;2.31;;
50651;SDS011;66928;52.086;5.240;2023-05-23T18:30:32;7.4;;;2.31;;
50651;SDS011;66928;52.086;5.240;2023-05-23T18:32:08;5.9;;;2.31;;
50651;SDS011;66928;52.086;5.240;2023-05-23T18:33:45;8.0;;;2.5;;
50651;SDS011;66928;52.086;5.240;2023-05-23T18:36:58;6.6;;;2.6;;
50651;SDS011;66928;52.086;5.240;2023-05-23T18:38:34;9.21;;;2.9;;
50651;SDS011;66928;52.086;5.240;2023-05-23T18:40:10;7.0;;;2.4;;